Time;durP1;ratioP1;P1;durP2;ratioP2;P2;SDS_P1;SDS_P2;PMS_P1;PMS_P2;Temp;Humidity;BMP_temperature;BMP_pressure;BME280_temperature;BME280_humidity;BME280_pressure;Samples;Min_cycle;Max_cycle;Signal;HPM_P1;HPM_P2
2022/11/26 00:01:15;;;;;;;65.35;27.05;;;;;;;4.05;100.00;140699.47;5009415;28;20017;-63
2022/11/26 00:03:41;;;;;;;67.68;28.70;;;;;;;4.03;100.00;141390.78;5010697;28;20025;-65
2022/11/26 00:06:21;;;;;;;71.03;30.27;;;;;;;3.99;100.00;141728.22;5009519;28;20049;-64
2022/11/26 00:08:47;;;;;;;73.07;31.38;;;;;;;4.02;100.00;141388.44;5010824;28;20492;-64
2022/11/26 00:11:14;;;;;;;71.80;30.27;;;;;;;4.03;100.00;141042.78;5008585;28;20049;-64
2022/11/26 00:13:39;;;;;;;73.13;31.25;;;;;;;4.07;100.00;140704.09;5011068;28;20025;-65
2022/11/26 00:16:09;;;;;;;68.43;29.27;;;;;;;4.05;100.00;140351.53;5009317;28;20026;-65
2022/11/26 00:18:34;;;;;;;63.60;28.23;;;;;;;4.04;100.00;140349.19;5010698;28;20585;-65
2022/11/26 00:21:00;;;;;;;80.22;33.15;;;;;;;4.04;100.00;140349.19;5008812;28;20105;-65
2022/11/26 00:23:27;;;;;;;55.60;28.52;;;;;;;4.05;100.00;139655.72;5009676;28;20026;-65
2022/11/26 00:25:55;;;;;;;58.00;25.80;;;;;;;4.04;100.00;139653.41;5008470;28;20098;-64
2022/11/26 00:28:26;;;;;;;74.43;28.25;;;;;;;3.98;100.00;140335.25;5011679;28;20414;-63
2022/11/26 00:30:52;;;;;;;75.03;31.27;;;;;;;3.92;100.00;140669.16;5013012;28;20022;-64
2022/11/26 00:33:17;;;;;;;74.03;30.85;;;;;;;3.90;100.00;140664.53;5014218;28;20053;-65
2022/11/26 00:35:45;;;;;;;62.15;29.85;;;;;;;3.90;100.00;140664.53;5014795;28;20471;-66
2022/11/26 00:38:15;;;;;;;53.00;22.77;;;;;;;3.96;100.00;139982.75;5013273;28;20579;-66
2022/11/26 00:40:40;;;;;;;77.20;28.00;;;;;;;3.92;100.00;139626.81;5014056;28;20053;-64
2022/11/26 00:43:10;;;;;;;68.82;28.67;;;;;;;3.92;100.00;139626.81;5012315;28;20417;-64
2022/11/26 00:45:35;;;;;;;59.80;31.65;;;;;;;3.91;100.00;139276.72;5014258;28;20612;-64
2022/11/26 00:48:01;;;;;;;82.55;34.92;;;;;;;3.92;100.00;138930.09;5012583;28;20041;-64
2022/11/26 00:50:31;;;;;;;64.32;31.73;;;;;;;3.95;100.00;138589.25;5014361;28;20029;-64
2022/11/26 00:52:56;;;;;;;63.50;33.15;;;;;;;3.96;100.00;137549.59;5012209;28;20101;-64
2022/11/26 00:55:33;;;;;;;71.43;30.90;;;;;;;3.96;100.00;137200.84;5013740;28;20026;-64
2022/11/26 00:57:59;;;;;;;77.95;33.55;;;;;;;3.96;100.00;136853.25;5012736;28;20106;-64
2022/11/26 01:00:27;;;;;;;72.43;34.88;;;;;;;3.97;100.00;136160.41;5013789;28;20484;-64
2022/11/26 01:02:54;;;;;;;62.30;27.40;;;;;;;3.96;100.00;135811.72;5011972;28;20045;-64
2022/11/26 01:05:21;;;;;;;63.63;32.60;;;;;;;3.95;100.00;135461.97;5014229;28;20028;-64
2022/11/26 01:07:47;;;;;;;113.00;32.78;;;;;;;3.93;100.00;135456.41;5012382;28;20072;-64
2022/11/26 01:10:19;;;;;;;66.55;32.65;;;;;;;3.91;100.00;135451.94;5013700;28;20022;-65
2022/11/26 01:12:45;;;;;;;60.42;32.08;;;;;;;3.90;100.00;135450.81;5012244;28;20050;-64
2022/11/26 01:15:11;;;;;;;77.72;30.10;;;;;;;3.88;100.00;135792.66;5013763;28;20041;-64
2022/11/26 01:17:37;;;;;;;66.50;30.67;;;;;;;3.85;100.00;136480.81;5012343;28;20066;-64
2022/11/26 01:20:03;;;;;;;63.03;30.25;;;;;;;3.77;100.00;136812.50;5008107;28;20370;-65
2022/11/26 01:22:28;;;;;;;66.70;32.88;;;;;;;3.81;100.00;137516.63;5012117;28;20045;-64
2022/11/26 01:24:53;;;;;;;59.35;30.17;;;;;;;3.79;100.00;137510.97;5013009;28;20076;-64
2022/11/26 01:27:19;;;;;;;81.47;34.88;;;;;;;3.79;100.00;137859.66;5011898;28;20046;-64
2022/11/26 01:29:44;;;;;;;67.07;32.38;;;;;;;3.83;100.00;137172.47;5013308;28;20392;-65
2022/11/26 01:32:10;;;;;;;66.50;34.30;;;;;;;3.85;100.00;136828.34;5011682;28;20080;-64
2022/11/26 01:34:36;;;;;;;76.25;33.35;;;;;;;3.85;100.00;136134.50;5013206;28;20489;-64
2022/11/26 01:37:01;;;;;;;68.20;35.35;;;;;;;3.78;100.00;136467.28;5012073;28;20049;-63
2022/11/26 01:39:27;;;;;;;87.25;35.38;;;;;;;3.75;100.00;136460.53;5012817;28;20033;-63
2022/11/26 01:42:06;;;;;;;80.28;33.10;;;;;;;3.78;100.00;136467.28;5011025;28;20496;-63
2022/11/26 01:44:33;;;;;;;63.83;32.03;;;;;;;3.79;100.00;136121.00;5012946;28;20072;-63
2022/11/26 01:47:00;;;;;;;72.70;30.52;;;;;;;3.76;100.00;136115.31;5011168;28;20126;-63
2022/11/26 01:49:32;;;;;;;116.47;36.75;;;;;;;3.73;100.00;136456.00;5013305;28;20393;-63
2022/11/26 01:52:23;;;;;;;76.05;38.28;;;;;;;3.70;100.00;136796.66;5011246;28;20154;-63
2022/11/26 01:54:50;;;;;;;71.07;34.25;;;;;;;3.68;100.00;136444.75;5012463;28;20546;-63
2022/11/26 01:57:26;;;;;;;66.50;36.20;;;;;;;3.71;100.00;136104.09;5011745;28;20173;-62
2022/11/26 01:59:55;;;;;;;73.57;38.53;;;;;;;3.70;100.00;136449.22;5012498;28;20595;-62
2022/11/26 02:02:26;;;;;;;91.30;38.47;;;;;;;3.74;100.00;136109.72;5010841;28;20057;-62
2022/11/26 02:05:13;;;;;;;84.10;38.65;;;;;;;3.74;100.00;136110.84;5012593;28;20503;-62
2022/11/26 02:07:39;;;;;;;85.82;31.20;;;;;;;3.76;100.00;135767.94;5011016;28;20052;-62
2022/11/26 02:10:05;;;;;;;72.18;34.42;;;;;;;3.76;100.00;135767.94;5012283;28;20029;-62
2022/11/26 02:12:31;;;;;;;83.32;36.45;;;;;;;3.78;100.00;135423.94;5011029;28;20061;-62
2022/11/26 02:14:56;;;;;;;84.50;36.05;;;;;;;3.77;100.00;135421.69;5012257;28;20025;-62
2022/11/26 02:17:25;;;;;;;79.25;38.85;;;;;;;3.80;100.00;135082.16;5011470;28;20044;-62
2022/11/26 02:20:12;;;;;;;70.90;35.92;;;;;;;3.79;100.00;134732.59;5012215;28;20034;-62
2022/11/26 02:22:49;;;;;;;51.70;32.53;;;;;;;3.77;100.00;135075.44;5010693;28;20041;-62
2022/11/26 02:25:14;;;;;;;67.90;35.13;;;;;;;3.70;100.00;135407.13;5012053;28;20092;-63
2022/11/26 02:28:12;;;;;;;81.38;36.95;;;;;;;3.71;100.00;135409.38;5010752;28;20132;-63
2022/11/26 02:30:46;;;;;;;56.47;28.27;;;;;;;3.74;100.00;135068.78;4986494;28;20091;-63
2022/11/26 02:33:22;;;;;;;68.93;37.28;;;;;;;3.73;100.00;134719.25;5010837;28;20508;-63
2022/11/26 02:36:00;;;;;;;84.15;40.28;;;;;;;3.77;100.00;134380.84;5012194;28;20637;-63
2022/11/26 02:38:29;;;;;;;71.32;33.95;;;;;;;3.80;100.00;133692.97;5010820;28;20548;-63
2022/11/26 02:40:55;;;;;;;64.63;34.30;;;;;;;3.73;100.00;134024.72;5010840;28;20385;-63
2022/11/26 02:43:23;;;;;;;63.20;34.60;;;;;;;3.70;100.00;134365.28;5011958;28;20074;-63
2022/11/26 02:45:54;;;;;;;63.80;31.95;;;;;;;3.69;100.00;134361.97;5011181;28;20028;-63
2022/11/26 02:48:24;;;;;;;65.55;36.65;;;;;;;3.64;100.00;134700.31;5010896;28;20132;-63
2022/11/26 02:50:54;;;;;;;71.63;37.53;;;;;;;3.60;100.00;135037.50;5011871;28;20045;-62
2022/11/26 02:53:21;;;;;;;63.72;33.85;;;;;;;3.56;100.00;135723.03;5010395;28;20053;-62
2022/11/26 02:55:53;;;;;;;77.38;35.22;;;;;;;3.54;100.00;136413.16;5011614;28;20417;-63
2022/11/26 02:58:19;;;;;;;78.07;36.45;;;;;;;3.45;100.00;137784.41;5010252;28;20038;-63
2022/11/26 03:00:47;;;;;;;68.25;35.63;;;;;;;3.43;100.00;138474.63;5011507;28;20076;-62
2022/11/26 03:03:24;;;;;;;65.78;35.70;;;;;;;3.42;100.00;139167.25;5010397;28;20042;-63
2022/11/26 03:05:54;;;;;;;79.03;41.38;;;;;;;3.41;100.00;139859.94;5011331;28;20532;-63
2022/11/26 03:08:21;;;;;;;93.57;35.10;;;;;;;3.39;100.00;140549.28;5010165;28;20764;-62
2022/11/26 03:10:46;;;;;;;82.10;36.28;;;;;;;3.38;100.00;141243.34;5011459;28;20140;-65
2022/11/26 03:13:12;;;;;;;73.85;37.13;;;;;;;3.37;100.00;141241.00;5009975;28;20113;-64
2022/11/26 03:15:37;;;;;;;70.07;35.97;;;;;;;3.31;100.00;142269.88;5011504;28;20026;-64
2022/11/26 03:18:02;;;;;;;78.43;38.65;;;;;;;3.28;100.00;142959.34;5010088;28;20472;-65
2022/11/26 03:20:28;;;;;;;77.00;39.80;;;;;;;3.26;100.00;142953.44;5006053;28;20030;-64
2022/11/26 03:22:53;;;;;;;74.15;38.10;;;;;;;3.25;100.00;143298.78;5009187;28;20045;-64
2022/11/26 03:25:18;;;;;;;68.90;37.17;;;;;;;3.21;100.00;143984.78;5011347;28;20029;-62
2022/11/26 03:27:44;;;;;;;76.35;40.03;;;;;;;3.20;100.00;144330.16;5009791;28;20081;-63
2022/11/26 03:30:10;;;;;;;77.80;37.97;;;;;;;3.17;100.00;144673.16;5011052;28;20021;-63
2022/11/26 03:32:35;;;;;;;85.28;40.72;;;;;;;3.13;100.00;145011.38;5010003;28;20145;-62
2022/11/26 03:35:01;;;;;;;88.05;41.35;;;;;;;3.07;100.00;145692.56;5011162;28;20079;-62
2022/11/26 03:37:26;;;;;;;71.30;37.08;;;;;;;3.05;100.00;146034.38;5009231;28;20049;-62
2022/11/26 03:39:51;;;;;;;86.10;39.53;;;;;;;3.03;100.00;146377.38;5011046;28;20029;-62
2022/11/26 03:42:17;;;;;;;94.15;38.83;;;;;;;3.00;100.00;146719.19;5009633;28;20045;-62
2022/11/26 03:44:42;;;;;;;108.03;38.03;;;;;;;2.97;100.00;147059.72;5010819;28;20049;-63
2022/11/26 03:47:07;;;;;;;109.93;39.08;;;;;;;2.91;100.00;147742.09;5009275;28;20049;-63
2022/11/26 03:49:33;;;;;;;81.55;35.47;;;;;;;2.83;100.00;148766.25;5010987;28;20018;-63
2022/11/26 03:51:58;;;;;;;82.30;37.30;;;;;;;2.79;100.00;149453.50;5008976;28;20046;-62
2022/11/26 03:54:23;;;;;;;76.68;36.78;;;;;;;2.79;100.00;149453.50;5011197;28;20370;-61
2022/11/26 03:56:49;;;;;;;87.40;37.22;;;;;;;2.79;100.00;149801.50;5009461;28;20045;-61
2022/11/26 03:59:14;;;;;;;123.72;38.53;;;;;;;2.74;100.00;150137.09;5010653;28;20393;-62
2022/11/26 04:01:39;;;;;;;81.93;37.95;;;;;;;2.72;100.00;150480.13;5009598;28;20046;-62
2022/11/26 04:04:05;;;;;;;90.65;36.00;;;;;;;2.62;100.00;150803.16;5010615;28;20018;-61
2022/11/26 04:06:30;;;;;;;83.47;39.55;;;;;;;2.63;100.00;151501.75;5008958;28;20524;-61
2022/11/26 04:08:56;;;;;;;99.65;38.85;;;;;;;2.58;100.00;151838.50;5010901;28;20029;-61
2022/11/26 04:11:21;;;;;;;82.57;39.08;;;;;;;2.63;100.00;151849.84;5009058;28;20050;-64
2022/11/26 04:13:46;;;;;;;95.68;41.03;;;;;;;2.62;100.00;151500.47;5010295;28;20033;-62
2022/11/26 04:16:12;;;;;;;78.40;39.75;;;;;;;2.62;100.00;151499.25;5009326;28;20489;-63
2022/11/26 04:18:37;;;;;;;78.20;38.10;;;;;;;2.60;100.00;151494.19;5010992;28;20076;-63
2022/11/26 04:21:06;;;;;;;137.43;40.67;;;;;;;2.60;100.00;151146.16;5008932;28;20863;-62
2022/11/26 04:23:31;;;;;;;141.32;44.30;;;;;;;2.58;100.00;151141.09;5010828;28;20022;-62
2022/11/26 04:25:57;;;;;;;138.10;41.78;;;;;;;2.60;100.00;150798.13;5008840;28;20022;-64
2022/11/26 04:28:22;;;;;;;72.82;37.55;;;;;;;2.56;100.00;150788.13;5010148;28;20313;-64
2022/11/26 04:30:48;;;;;;;105.53;42.92;;;;;;;2.52;100.00;150779.38;5010631;28;20477;-64
2022/11/26 04:33:13;;;;;;;81.93;38.47;;;;;;;2.51;100.00;150778.09;5009299;28;20042;-66
2022/11/26 04:35:38;;;;;;;91.88;41.65;;;;;;;2.53;100.00;150781.88;5010584;28;20070;-65
2022/11/26 04:38:04;;;;;;;80.78;41.72;;;;;;;2.50;100.00;150775.56;5008972;28;20057;-65
2022/11/26 04:40:29;;;;;;;82.22;39.50;;;;;;;2.47;100.00;150768.09;5010571;28;20022;-65
2022/11/26 04:42:54;;;;;;;78.88;39.22;;;;;;;2.49;100.00;150425.19;5008183;28;20508;-65
2022/11/26 04:45:20;;;;;;;89.63;41.70;;;;;;;2.50;100.00;150079.72;5010750;28;20034;-65
2022/11/26 04:47:45;;;;;;;96.50;42.38;;;;;;;2.55;100.00;149395.19;5008573;28;20049;-65
2022/11/26 04:50:11;;;;;;;71.70;35.47;;;;;;;2.54;100.00;149046.13;5010392;28;20044;-66
2022/11/26 04:52:36;;;;;;;97.80;44.72;;;;;;;2.51;100.00;149386.50;5008848;28;20491;-65
2022/11/26 04:55:02;;;;;;;98.65;40.10;;;;;;;2.43;100.00;149714.44;5010243;28;20025;-65
2022/11/26 04:57:27;;;;;;;174.68;44.22;;;;;;;2.45;100.00;149719.44;5009061;28;20496;-65
2022/11/26 04:59:53;;;;;;;99.25;41.15;;;;;;;2.46;100.00;149374.13;5009772;28;20037;-64
2022/11/26 05:02:18;;;;;;;105.50;41.90;;;;;;;2.53;100.00;148348.06;5007618;28;20046;-63
2022/11/26 05:04:43;;;;;;;78.13;39.35;;;;;;;2.52;100.00;147997.84;5010541;28;20503;-63
2022/11/26 05:07:09;;;;;;;84.70;42.55;;;;;;;2.51;100.00;147647.69;5008343;28;20424;-67
2022/11/26 05:09:34;;;;;;;97.10;41.75;;;;;;;2.54;100.00;147306.13;5010489;28;20033;-63
2022/11/26 05:12:00;;;;;;;88.53;41.17;;;;;;;2.56;100.00;146962.16;5008910;28;20412;-63
2022/11/26 05:14:25;;;;;;;89.63;41.90;;;;;;;2.52;100.00;147302.47;5009846;28;20393;-63
2022/11/26 05:16:50;;;;;;;113.80;42.85;;;;;;;2.49;100.00;146947.53;5011607;28;20042;-63
2022/11/26 05:19:15;;;;;;;80.32;37.63;;;;;;;2.47;100.00;147290.25;5013948;28;20049;-63
2022/11/26 05:21:41;;;;;;;73.25;41.35;;;;;;;2.37;100.00;147961.00;5011813;28;20034;-63
2022/11/26 05:24:06;;;;;;;103.90;40.95;;;;;;;2.47;100.00;146941.38;5013813;28;20033;-63
2022/11/26 05:26:32;;;;;;;106.60;42.28;;;;;;;2.46;100.00;146938.94;5012131;28;20500;-63
2022/11/26 05:28:57;;;;;;;109.47;45.17;;;;;;;2.44;100.00;146935.28;5012834;28;20079;-63
2022/11/26 05:31:23;;;;;;;91.05;43.88;;;;;;;2.52;100.00;145564.50;5011828;28;20094;-64
2022/11/26 05:33:48;;;;;;;108.40;48.47;;;;;;;2.52;100.00;145217.00;5013499;28;20026;-64
2022/11/26 05:36:13;;;;;;;126.72;51.28;;;;;;;2.55;100.00;144528.06;5013128;28;20362;-65
2022/11/26 05:38:39;;;;;;;107.93;44.53;;;;;;;2.63;100.00;143503.72;5011851;28;20065;-69
2022/11/26 05:41:04;;;;;;;103.13;45.53;;;;;;;2.61;100.00;143151.56;5013142;28;20022;-65
2022/11/26 05:43:29;;;;;;;93.00;43.15;;;;;;;2.62;100.00;142806.59;5010541;28;20061;-65
2022/11/26 05:45:55;;;;;;;102.13;43.92;;;;;;;2.56;100.00;143139.69;5012699;28;20033;-65
2022/11/26 05:48:20;;;;;;;111.05;48.80;;;;;;;2.56;100.00;143487.06;5011084;28;20042;-65
2022/11/26 05:50:46;;;;;;;119.53;47.80;;;;;;;2.57;100.00;143142.09;5012638;28;20105;-65
2022/11/26 05:53:11;;;;;;;158.23;51.22;;;;;;;2.58;100.00;142798.28;5011595;28;20504;-65
2022/11/26 05:55:37;;;;;;;128.20;53.55;;;;;;;2.62;100.00;142459.25;5012704;28;20429;-65
2022/11/26 05:58:02;;;;;;;126.45;51.90;;;;;;;2.67;100.00;141429.16;5010762;28;20523;-65
2022/11/26 06:00:28;;;;;;;133.45;55.78;;;;;;;2.69;100.00;140740.53;5010944;28;20092;-65
2022/11/26 06:02:53;;;;;;;144.30;58.53;;;;;;;2.74;100.00;139362.31;5011563;28;20053;-65
2022/11/26 06:05:18;;;;;;;177.23;58.47;;;;;;;2.92;100.00;137319.88;5011968;28;20022;-66
2022/11/26 06:07:44;;;;;;;383.75;67.40;;;;;;;2.97;100.00;136289.03;5011069;28;20038;-65
2022/11/26 06:10:09;;;;;;;244.07;61.72;;;;;;;3.01;100.00;135257.16;5013064;28;20033;-65
2022/11/26 06:12:35;;;;;;;297.40;65.35;;;;;;;3.02;100.00;134912.44;5011008;28;20041;-65
2022/11/26 06:15:00;;;;;;;353.27;66.75;;;;;;;3.05;100.00;134225.38;5012072;28;20030;-65
2022/11/26 06:17:26;;;;;;;340.90;69.25;;;;;;;3.09;100.00;133193.72;5009764;28;20081;-64
2022/11/26 06:19:51;;;;;;;244.63;60.40;;;;;;;3.15;100.00;132513.34;5010706;28;20025;-66
2022/11/26 06:22:17;;;;;;;298.75;63.53;;;;;;;3.19;100.00;131827.50;5011290;28;20104;-65
2022/11/26 06:24:42;;;;;;;327.73;68.15;;;;;;;3.21;100.00;131137.31;5012301;28;20417;-65
2022/11/26 06:27:08;;;;;;;288.83;62.00;;;;;;;3.23;100.00;131141.66;5008880;28;20100;-64
2022/11/26 06:29:33;;;;;;;245.43;63.53;;;;;;;3.24;100.00;130797.13;5012198;28;20025;-63
2022/11/26 06:31:58;;;;;;;168.57;60.03;;;;;;;3.29;100.00;130114.59;5009698;28;20049;-63
2022/11/26 06:34:24;;;;;;;140.88;52.55;;;;;;;3.31;100.00;129772.25;5010391;28;20018;-63
2022/11/26 06:36:49;;;;;;;197.25;63.17;;;;;;;3.33;100.00;129777.59;5010453;28;20508;-63
2022/11/26 06:39:15;;;;;;;170.57;56.78;;;;;;;3.32;100.00;129428.81;5011458;28;20036;-63
2022/11/26 06:41:40;;;;;;;186.68;60.28;;;;;;;3.35;100.00;128739.94;5009128;28;20526;-62
2022/11/26 06:44:05;;;;;;;203.82;57.25;;;;;;;3.37;100.00;128398.66;5011016;28;20061;-63
2022/11/26 06:46:33;;;;;;;213.25;65.57;;;;;;;3.38;100.00;128054.25;5011441;28;20029;-63
2022/11/26 06:49:03;;;;;;;170.50;57.97;;;;;;;3.43;100.00;127025.28;5008351;28;20100;-63
2022/11/26 06:51:28;;;;;;;157.75;56.33;;;;;;;3.43;100.00;127024.22;5011678;28;20034;-63
2022/11/26 06:53:54;;;;;;;183.93;61.40;;;;;;;3.47;100.00;126339.69;5009365;28;20038;-63
2022/11/26 06:56:19;;;;;;;202.00;60.28;;;;;;;3.39;100.00;125977.66;5009406;28;20030;-62
2022/11/26 06:58:45;;;;;;;169.15;58.53;;;;;;;3.47;100.00;125647.91;5009576;28;20050;-62
2022/11/26 07:01:14;;;;;;;206.57;59.45;;;;;;;3.48;100.00;125650.00;5010932;28;20556;-62
2022/11/26 07:03:40;;;;;;;238.38;65.88;;;;;;;3.48;100.00;125303.63;5003946;28;20061;-63
2022/11/26 07:06:15;;;;;;;180.23;61.80;;;;;;;3.53;100.00;124620.25;5010448;28;20389;-63
2022/11/26 07:08:41;;;;;;;182.00;60.03;;;;;;;3.54;100.00;124274.97;5009400;28;20049;-60
2022/11/26 07:11:06;;;;;;;212.80;65.80;;;;;;;3.61;100.00;123596.72;5010003;28;20030;-61
2022/11/26 07:13:32;;;;;;;218.13;64.15;;;;;;;3.59;100.00;123593.63;5009819;28;20409;-60
2022/11/26 07:16:01;;;;;;;168.70;59.03;;;;;;;3.62;100.00;123252.44;5011125;28;20033;-61
2022/11/26 07:18:27;;;;;;;181.75;60.58;;;;;;;3.64;100.00;122911.31;5007908;28;20045;-61
2022/11/26 07:20:52;;;;;;;210.00;58.55;;;;;;;3.72;100.00;121887.78;5010687;28;20397;-61
2022/11/26 07:23:17;;;;;;;177.35;56.97;;;;;;;3.75;100.00;121201.44;5009527;28;20046;-61
2022/11/26 07:25:43;;;;;;;210.15;59.75;;;;;;;3.78;100.00;120861.25;5009864;28;20029;-61
2022/11/26 07:28:08;;;;;;;176.90;59.53;;;;;;;3.78;100.00;120515.13;5008947;28;20053;-61
2022/11/26 07:30:33;;;;;;;186.45;59.72;;;;;;;3.79;100.00;120517.13;5010629;28;20380;-61
2022/11/26 07:32:59;;;;;;;164.65;57.03;;;;;;;3.84;100.00;120525.03;5007375;28;20042;-61
2022/11/26 07:35:24;;;;;;;154.32;57.60;;;;;;;3.85;100.00;120180.91;5010333;28;20051;-61
2022/11/26 07:37:50;;;;;;;153.55;56.92;;;;;;;3.86;100.00;120875.19;5008596;28;20049;-61
2022/11/26 07:40:15;;;;;;;161.73;61.60;;;;;;;3.89;100.00;120535.00;5009577;28;20022;-61
2022/11/26 07:42:40;;;;;;;157.55;57.55;;;;;;;3.90;100.00;120537.97;5008932;28;20034;-61
2022/11/26 07:45:06;;;;;;;144.07;53.63;;;;;;;3.94;100.00;120198.72;5010747;28;20632;-61
2022/11/26 07:47:32;;;;;;;150.55;56.17;;;;;;;3.96;100.00;120548.88;5007509;28;20070;-61
2022/11/26 07:49:58;;;;;;;192.48;57.30;;;;;;;3.96;100.00;120549.88;5009066;28;20509;-61
2022/11/26 07:52:23;;;;;;;166.00;54.60;;;;;;;3.99;100.00;120207.63;5009882;28;20050;-61
2022/11/26 07:54:49;;;;;;;192.93;56.22;;;;;;;3.95;100.00;120200.69;5010510;28;20018;-63
2022/11/26 07:57:14;;;;;;;159.25;54.55;;;;;;;4.03;100.00;119870.34;5007675;28;20037;-64
2022/11/26 07:59:39;;;;;;;163.63;55.72;;;;;;;4.05;100.00;119874.28;5017443;28;20033;-62
2022/11/26 08:02:05;;;;;;;145.13;54.63;;;;;;;4.11;100.00;119192.69;5017082;28;20041;-62
2022/11/26 08:04:30;;;;;;;144.15;54.72;;;;;;;4.11;100.00;118847.53;5010466;28;20034;-62
2022/11/26 08:06:55;;;;;;;167.63;58.63;;;;;;;4.17;100.00;118511.13;5009214;28;20090;-61
2022/11/26 08:09:21;;;;;;;134.88;58.13;;;;;;;4.21;100.00;118173.72;5010292;28;20489;-61
2022/11/26 08:11:46;;;;;;;174.27;54.88;;;;;;;4.25;100.00;117488.25;5008164;28;20220;-61
2022/11/26 08:14:12;;;;;;;135.82;50.90;;;;;;;4.24;100.00;117486.31;5011149;28;20017;-61
2022/11/26 08:16:38;;;;;;;169.93;51.67;;;;;;;4.28;100.00;117147.94;5010002;28;20030;-61
2022/11/26 08:19:07;;;;;;;124.60;50.72;;;;;;;4.33;100.00;116811.44;5002541;28;20929;-61
2022/11/26 08:21:32;;;;;;;137.30;52.97;;;;;;;4.36;100.00;116124.06;5006288;28;20018;-61
2022/11/26 08:23:58;;;;;;;129.07;49.92;;;;;;;4.40;100.00;115786.59;5006912;28;20390;-61
2022/11/26 08:26:24;;;;;;;138.73;54.72;;;;;;;4.48;100.00;115107.78;5011461;28;20117;-61
2022/11/26 08:28:50;;;;;;;149.63;53.50;;;;;;;4.50;100.00;114765.53;5011426;28;20076;-61
2022/11/26 08:31:16;;;;;;;137.00;55.08;;;;;;;4.54;100.00;114081.03;5009068;28;20046;-61
2022/11/26 08:33:42;;;;;;;140.48;51.83;;;;;;;4.56;100.00;114084.78;5009873;28;20025;-61
2022/11/26 08:36:08;;;;;;;130.30;50.28;;;;;;;4.61;100.00;113748.13;5008771;28;20061;-61
2022/11/26 08:38:34;;;;;;;132.65;51.55;;;;;;;4.60;100.00;113747.22;5010263;28;20076;-61
2022/11/26 08:41:01;;;;;;;135.13;54.60;;;;;;;4.66;100.00;113410.53;5008275;28;20134;-61
2022/11/26 08:43:26;;;;;;;121.22;52.40;;;;;;;4.68;100.00;113415.19;5009894;28;20049;-61
2022/11/26 08:45:56;;;;;;;134.23;52.30;;;;;;;4.73;100.00;113077.56;5008374;28;20072;-61
2022/11/26 08:48:23;;;;;;;120.63;53.80;;;;;;;4.73;100.00;113424.50;5009395;28;20465;-61
2022/11/26 08:50:49;;;;;;;124.00;52.40;;;;;;;4.76;100.00;113084.03;5011219;28;20040;-61
2022/11/26 08:53:14;;;;;;;111.22;51.60;;;;;;;4.78;100.00;113085.91;5014324;28;20389;-63
2022/11/26 08:55:40;;;;;;;105.80;54.10;;;;;;;4.79;100.00;113433.81;5013746;28;20512;-61
2022/11/26 08:58:05;;;;;;;123.20;51.03;;;;;;;4.81;100.00;113091.47;5011375;28;20033;-61
2022/11/26 09:00:31;;;;;;;119.50;50.83;;;;;;;4.89;100.00;112760.22;5013503;28;20037;-59
2022/11/26 09:02:56;;;;;;;118.35;55.10;;;;;;;4.95;100.00;112424.34;5011491;28;20052;-60
2022/11/26 09:05:21;;;;;;;131.25;60.80;;;;;;;4.99;100.00;112432.66;5013399;28;20408;-60
2022/11/26 09:07:47;;;;;;;126.90;54.03;;;;;;;5.09;100.00;111757.91;5011749;28;20061;-60
2022/11/26 09:10:12;;;;;;;114.10;53.58;;;;;;;5.14;100.00;111420.06;5013209;28;20029;-61
2022/11/26 09:12:37;;;;;;;119.68;55.65;;;;;;;5.13;100.00;111764.34;5012157;28;20100;-61
2022/11/26 09:15:03;;;;;;;96.75;50.70;;;;;;;5.17;100.00;111771.69;5013504;28;20427;-60
2022/11/26 09:17:28;;;;;;;92.90;49.65;;;;;;;5.18;100.00;112465.84;5011740;28;20085;-60
2022/11/26 09:19:55;;;;;;;96.35;49.88;;;;;;;5.28;100.00;112138.06;5013338;28;20021;-61
2022/11/26 09:22:21;;;;;;;106.35;51.45;;;;;;;5.42;100.00;111123.19;5006391;28;20382;-61
2022/11/26 09:24:46;;;;;;;103.72;52.45;;;;;;;5.49;100.00;111135.94;5012940;28;20041;-62
2022/11/26 09:27:12;;;;;;;112.75;55.72;;;;;;;5.51;100.00;111139.59;5011965;28;20034;-62
2022/11/26 09:29:37;;;;;;;99.57;52.15;;;;;;;5.55;100.00;111146.84;5012826;28;20026;-62
2022/11/26 09:32:03;;;;;;;96.78;55.15;;;;;;;5.66;100.00;110474.25;5011053;28;20046;-62
2022/11/26 09:34:28;;;;;;;103.68;50.15;;;;;;;5.58;100.00;111498.66;5011255;28;20030;-62
2022/11/26 09:36:53;;;;;;;90.05;48.35;;;;;;;5.59;100.00;112193.25;5020208;28;20104;-62
2022/11/26 09:39:19;;;;;;;78.13;45.58;;;;;;;5.59;100.00;113232.63;5012758;28;20022;-62
2022/11/26 09:41:55;;;;;;;84.18;46.05;;;;;;;5.61;100.00;113582.88;5011621;28;20038;-62
2022/11/26 09:44:27;;;;;;;93.30;45.50;;;;;;;5.63;100.00;114973.03;5012242;28;20057;-62
2022/11/26 09:47:07;;;;;;;78.57;44.05;;;;;;;5.59;100.00;116352.31;5010669;28;20080;-62
2022/11/26 09:49:57;;;;;;;74.85;43.85;;;;;;;5.65;100.00;117404.28;5013103;28;20048;-62
2022/11/26 09:52:29;;;;;;;69.50;41.47;;;;;;;5.83;100.00;116396.25;5010567;28;20080;-62
2022/11/26 09:55:04;;;;;;;84.18;41.85;;;;;;;5.85;100.00;116746.97;5011133;28;20365;-61
2022/11/26 09:57:36;;;;;;;76.53;40.97;;;;;;;5.93;100.00;116762.31;5009768;28;20038;-62
2022/11/26 10:00:04;;;;;;;69.53;39.13;;;;;;;6.01;100.00;116430.69;5011503;28;20022;-61
2022/11/26 10:02:29;;;;;;;76.20;40.78;;;;;;;6.17;100.00;116112.28;5010262;28;20096;-61
2022/11/26 10:04:55;;;;;;;90.05;44.63;;;;;;;6.27;100.00;116825.66;5012236;28;20034;-62
2022/11/26 10:07:57;;;;;;;75.78;42.13;;;;;;;6.38;100.00;117886.66;5010853;28;20050;-61
2022/11/26 10:10:34;;;;;;;56.25;36.78;;;;;;;6.39;100.00;119626.66;5012571;28;20018;-61
2022/11/26 10:13:15;;;;;;;76.35;36.35;;;;;;;6.48;100.00;120686.06;5010953;28;20049;-62
2022/11/26 10:16:08;;;;;;;59.63;33.20;;;;;;;6.62;100.00;121409.31;5012502;28;20469;-62
2022/11/26 10:18:42;;;;;;;70.63;35.70;;;;;;;6.76;100.00;122478.88;5005972;28;20072;-62
2022/11/26 10:21:10;;;;;;;53.58;28.52;;;;;;;6.81;100.00;124577.28;5010134;28;20033;-61
2022/11/26 10:23:44;;;;;;;52.25;30.60;;;;;;;6.87;100.00;126679.13;4992519;28;20118;-62
2022/11/26 10:26:28;;;;;;;50.47;31.15;;;;;;;6.95;100.00;129483.94;4997323;28;20041;-62
2022/11/26 10:29:32;;;;;;;45.17;28.63;;;;;;;6.98;100.00;131931.59;5011765;28;20388;-63
2022/11/26 10:32:04;;;;;;;56.92;27.08;;;;;;;7.08;100.00;132998.03;5016065;28;20053;-62
2022/11/26 10:34:38;;;;;;;40.30;25.08;;;;;;;7.12;100.00;135101.47;5031929;28;20036;-62
2022/11/26 10:37:04;;;;;;;50.67;23.67;;;;;;;7.09;100.00;138589.28;5030021;28;20038;-61
2022/11/26 10:39:29;;;;;;;49.88;25.30;;;;;;;7.05;100.00;141725.28;5017678;28;20087;-61
2022/11/26 10:41:55;;;;;;;42.03;21.00;;;;;;;7.08;100.00;143131.53;5010915;28;20037;-61
2022/11/26 10:44:33;;;;;;;47.78;25.67;;;;;;;7.15;100.00;143148.06;5011387;28;20137;-61
2022/11/26 10:47:16;;;;;;;77.97;28.40;;;;;;;7.22;100.00;142814.69;5009500;28;20456;-61
2022/11/26 10:49:42;;;;;;;43.80;23.60;;;;;;;7.26;100.00;143174.06;5011924;28;20061;-61
2022/11/26 10:52:08;;;;;;;47.00;26.02;;;;;;;7.27;100.00;144226.47;5009287;28;20049;-62
2022/11/26 10:54:36;;;;;;;49.00;22.38;;;;;;;7.36;100.00;144245.53;5011457;28;20118;-62
2022/11/26 10:57:11;;;;;;;42.90;21.75;;;;;;;7.51;100.00;144631.50;5010149;28;20506;-61
2022/11/26 10:59:45;;;;;;;40.67;21.27;;;;;;;7.52;100.00;147786.00;5011266;28;20032;-62
2022/11/26 11:02:16;;;;;;;44.40;20.60;;;;;;;7.59;100.00;149908.09;5009784;28;20034;-62
2022/11/26 11:04:44;;;;;;;47.00;20.67;;;;;;;7.65;100.00;152727.41;5010926;28;20045;-62
2022/11/26 11:07:27;;;;;;;48.80;21.17;;;;;;;7.72;100.00;155204.34;5009580;28;20041;-61
2022/11/26 11:10:11;;;;;;;56.78;22.90;;;;;;;7.78;100.00;160875.63;5011106;28;20033;-61